createdAt,value
2022-09-26T00:00:00.884Z,97.54
2022-09-26T00:01:01.753Z,96.62
2022-09-26T00:02:01.242Z,96.67
2022-09-26T00:03:01.411Z,95.75
2022-09-26T00:04:01.585Z,95.50
2022-09-26T00:05:01.761Z,94.89
2022-09-26T00:06:01.925Z,94.02
2022-09-26T00:07:03.708Z,94.02
2022-09-26T00:08:02.325Z,93.30
2022-09-26T00:09:03.216Z,93.20
2022-09-26T00:10:02.600Z,92.65
2022-09-26T00:11:02.756Z,91.83
2022-09-26T00:12:02.908Z,91.93
2022-09-26T00:13:03.052Z,91.27
2022-09-26T00:14:03.246Z,91.78
2022-09-26T00:15:04.193Z,90.56
2022-09-26T00:16:03.609Z,90.66
2022-09-26T00:17:03.822Z,90.77
2022-09-26T00:18:04.694Z,90.05
2022-09-26T00:19:05.245Z,90.21
2022-09-26T00:20:04.419Z,90.25
2022-09-26T00:21:04.713Z,89.59
2022-09-26T00:22:04.735Z,89.50
2022-09-26T00:23:04.868Z,89.80
2022-09-26T00:24:05.004Z,88.94
2022-09-26T00:25:05.164Z,88.57
2022-09-26T00:26:05.709Z,88.78
2022-09-26T00:27:05.501Z,88.37
2022-09-26T00:28:05.649Z,88.64
2022-09-26T00:29:05.848Z,88.33
2022-09-26T00:30:06.041Z,88.12
2022-09-26T00:31:06.765Z,88.33
2022-09-26T00:32:06.388Z,87.37
2022-09-26T00:33:06.546Z,87.41
2022-09-26T00:34:06.696Z,87.71
2022-09-26T00:35:07.215Z,87.71
2022-09-26T00:36:07.213Z,88.43
2022-09-26T00:37:07.115Z,87.61
2022-09-26T00:38:07.256Z,87.82
2022-09-26T00:39:07.387Z,87.61
2022-09-26T00:40:07.533Z,88.33
2022-09-26T00:41:07.667Z,87.47
2022-09-26T00:42:08.820Z,87.61
2022-09-26T00:43:07.924Z,87.82
2022-09-26T00:44:08.053Z,87.41
2022-09-26T00:45:08.222Z,87.41
2022-09-26T00:46:08.430Z,87.51
2022-09-26T00:47:08.632Z,88.02
2022-09-26T00:48:08.774Z,87.82
2022-09-26T00:49:08.975Z,87.61
2022-09-26T00:50:09.124Z,87.71
2022-09-26T00:51:10.359Z,87.88
2022-09-26T00:52:09.513Z,87.57
2022-09-26T00:53:10.204Z,87.77
2022-09-26T00:54:09.889Z,87.47
2022-09-26T00:55:10.708Z,87.77
2022-09-26T00:56:10.224Z,87.67
2022-09-26T00:57:10.413Z,87.57
2022-09-26T00:58:10.564Z,86.85
2022-09-26T00:59:10.729Z,87.57
2022-09-26T01:00:10.880Z,87.06
2022-09-26T01:01:11.145Z,86.96
2022-09-26T01:02:11.373Z,87.06
2022-09-26T01:03:11.433Z,87.06
2022-09-26T01:04:11.570Z,86.55
2022-09-26T01:05:11.733Z,87.26
2022-09-26T01:06:11.890Z,86.79
2022-09-26T01:07:13.049Z,87.57
2022-09-26T01:08:12.162Z,87.30
2022-09-26T01:09:12.423Z,87.37
2022-09-26T01:10:13.210Z,87.00
2022-09-26T01:11:16.778Z,87.61
2022-09-26T01:12:14.223Z,87.30
2022-09-26T01:13:13.085Z,87.71
2022-09-26T01:14:13.257Z,86.69
2022-09-26T01:15:14.216Z,87.61
2022-09-26T01:16:14.269Z,87.61
2022-09-26T01:17:13.828Z,87.92
2022-09-26T01:18:13.978Z,87.82
2022-09-26T01:19:14.261Z,87.71
2022-09-26T01:20:14.331Z,87.41
2022-09-26T01:21:14.485Z,87.61
2022-09-26T01:22:14.636Z,87.96
2022-09-26T01:23:14.762Z,87.76
2022-09-26T01:24:14.914Z,87.55
2022-09-26T01:25:15.054Z,87.65
2022-09-26T01:26:15.200Z,87.55
2022-09-26T01:27:15.327Z,87.96
2022-09-26T01:28:16.214Z,87.96
2022-09-26T01:29:15.689Z,87.76
2022-09-26T01:30:16.226Z,87.45
2022-09-26T01:31:16.005Z,87.76
2022-09-26T01:32:16.719Z,87.96
2022-09-26T01:33:16.317Z,87.55
2022-09-26T01:34:17.217Z,88.17
2022-09-26T01:35:16.717Z,88.17
2022-09-26T01:36:16.829Z,88.06
2022-09-26T01:37:17.147Z,88.06
2022-09-26T01:38:18.212Z,87.85
2022-09-26T01:39:17.451Z,87.96
2022-09-26T01:40:17.666Z,87.76
2022-09-26T01:41:17.714Z,87.65
2022-09-26T01:42:17.843Z,88.26
2022-09-26T01:43:17.966Z,88.02
2022-09-26T01:44:18.720Z,88.37
2022-09-26T01:45:18.335Z,87.55
2022-09-26T01:46:18.553Z,87.65
2022-09-26T01:47:19.220Z,87.51
2022-09-26T01:48:18.739Z,87.51
2022-09-26T01:49:18.881Z,87.55
2022-09-26T01:50:19.048Z,87.76
2022-09-26T01:51:19.725Z,88.47
2022-09-26T01:52:19.431Z,87.96
2022-09-26T01:53:19.586Z,88.37
2022-09-26T01:54:19.727Z,87.45
2022-09-26T01:55:19.897Z,88.23
2022-09-26T01:56:20.052Z,87.96
2022-09-26T01:57:20.242Z,87.85
2022-09-26T01:58:20.394Z,88.02
2022-09-26T01:59:20.535Z,87.92
2022-09-26T02:00:20.697Z,87.65
2022-09-26T02:01:20.896Z,88.26
2022-09-26T02:02:21.152Z,87.96
2022-09-26T02:03:22.225Z,88.06
2022-09-26T02:04:21.481Z,87.24
2022-09-26T02:05:21.628Z,87.55
2022-09-26T02:06:22.726Z,87.96
2022-09-26T02:07:22.231Z,87.65
2022-09-26T02:08:22.232Z,87.96
2022-09-26T02:09:23.238Z,88.57
2022-09-26T02:10:22.514Z,88.37
2022-09-26T02:11:22.656Z,88.17
2022-09-26T02:12:22.823Z,88.17
2022-09-26T02:13:23.035Z,88.47
2022-09-26T02:14:23.197Z,88.26
2022-09-26T02:15:23.364Z,88.47
2022-09-26T02:16:23.558Z,87.85
2022-09-26T02:17:23.631Z,88.26
2022-09-26T02:18:23.787Z,87.96
2022-09-26T02:19:24.239Z,88.47
2022-09-26T02:20:24.121Z,88.26
2022-09-26T02:21:24.362Z,87.96
2022-09-26T02:22:24.481Z,87.55
2022-09-26T02:23:24.722Z,88.06
2022-09-26T02:24:24.984Z,87.96
2022-09-26T02:25:25.105Z,88.41
2022-09-26T02:26:25.245Z,88.26
2022-09-26T02:27:25.366Z,88.26
2022-09-26T02:28:25.552Z,88.78
2022-09-26T02:29:25.662Z,88.98
2022-09-26T02:30:25.793Z,89.12
2022-09-26T02:31:26.022Z,88.78
2022-09-26T02:32:26.169Z,88.62
2022-09-26T02:33:26.323Z,88.62
2022-09-26T02:34:26.443Z,88.92
2022-09-26T02:35:26.568Z,88.98
2022-09-26T02:36:27.231Z,89.18
2022-09-26T02:37:26.834Z,89.12
2022-09-26T02:38:27.051Z,88.92
2022-09-26T02:39:27.155Z,89.74
2022-09-26T02:40:27.764Z,90.15
2022-09-26T02:41:27.658Z,89.94
2022-09-26T02:42:27.792Z,90.36
2022-09-26T02:43:28.729Z,90.25
2022-09-26T02:44:28.731Z,89.74
2022-09-26T02:45:28.405Z,89.94
2022-09-26T02:46:28.580Z,89.94
2022-09-26T02:47:28.711Z,90.15
2022-09-26T02:48:28.886Z,90.56
2022-09-26T02:49:29.042Z,90.36
2022-09-26T02:50:29.209Z,90.36
2022-09-26T02:51:29.351Z,90.91
2022-09-26T02:52:29.491Z,91.27
2022-09-26T02:53:29.646Z,91.63
2022-09-26T02:54:30.735Z,91.42
2022-09-26T02:55:30.739Z,91.73
2022-09-26T02:56:30.128Z,91.22
2022-09-26T02:57:30.284Z,91.89
2022-09-26T02:58:30.473Z,91.38
2022-09-26T02:59:30.639Z,90.97
2022-09-26T03:00:30.783Z,91.89
2022-09-26T03:01:31.297Z,91.17
2022-09-26T03:02:32.737Z,90.97
2022-09-26T03:03:31.380Z,91.63
2022-09-26T03:04:31.607Z,91.31
2022-09-26T03:05:31.769Z,91.78
2022-09-26T03:06:31.925Z,91.38
2022-09-26T03:07:32.063Z,91.27
2022-09-26T03:08:32.221Z,91.58
2022-09-26T03:09:32.347Z,91.17
2022-09-26T03:10:33.598Z,91.48
2022-09-26T03:11:32.718Z,91.07
2022-09-26T03:12:32.841Z,91.58
2022-09-26T03:13:33.075Z,91.38
2022-09-26T03:14:33.333Z,91.83
2022-09-26T03:15:33.492Z,91.69
2022-09-26T03:16:33.651Z,91.78
2022-09-26T03:17:33.817Z,92.14
2022-09-26T03:18:34.742Z,92.10
2022-09-26T03:19:34.762Z,91.89
2022-09-26T03:20:34.279Z,92.03
2022-09-26T03:21:36.975Z,92.65
2022-09-26T03:22:35.637Z,92.65
2022-09-26T03:23:34.889Z,93.06
2022-09-26T03:24:35.041Z,93.26
2022-09-26T03:25:35.193Z,94.08
2022-09-26T03:26:35.316Z,93.98
2022-09-26T03:27:35.461Z,94.70
2022-09-26T03:28:38.012Z,95.10
2022-09-26T03:29:36.740Z,95.31
2022-09-26T03:30:36.744Z,94.90
2022-09-26T03:31:36.167Z,94.95
2022-09-26T03:32:36.747Z,95.56
2022-09-26T03:33:36.395Z,95.82
2022-09-26T03:34:37.247Z,95.76
2022-09-26T03:35:36.731Z,95.66
2022-09-26T03:36:37.744Z,96.17
2022-09-26T03:37:37.115Z,95.66
2022-09-26T03:38:37.254Z,95.97
2022-09-26T03:39:37.422Z,96.17
2022-09-26T03:40:37.662Z,96.03
2022-09-26T03:41:37.706Z,96.17
2022-09-26T03:42:37.858Z,96.17
2022-09-26T03:43:38.747Z,95.76
2022-09-26T03:44:38.160Z,96.17
2022-09-26T03:45:38.358Z,96.17
2022-09-26T03:46:40.154Z,96.69
2022-09-26T03:47:39.609Z,96.32
2022-09-26T03:48:38.722Z,96.28
2022-09-26T03:49:39.749Z,96.38
2022-09-26T03:50:38.998Z,96.38
2022-09-26T03:51:39.155Z,96.89
2022-09-26T03:52:39.314Z,96.58
2022-09-26T03:53:40.256Z,96.38
2022-09-26T03:54:39.623Z,96.17
2022-09-26T03:55:39.793Z,95.97
2022-09-26T03:56:40.010Z,96.17
2022-09-26T03:57:40.264Z,96.17
2022-09-26T03:58:40.385Z,96.28
2022-09-26T03:59:40.536Z,96.07
2022-09-26T04:00:40.778Z,96.58
2022-09-26T04:01:40.810Z,96.17
2022-09-26T04:02:41.294Z,95.76
2022-09-26T04:03:43.179Z,96.07
2022-09-26T04:04:42.421Z,95.87
2022-09-26T04:05:41.581Z,96.38
2022-09-26T04:06:41.720Z,96.28
2022-09-26T04:07:41.884Z,96.38
2022-09-26T04:08:42.036Z,96.69
2022-09-26T04:09:42.213Z,96.44
2022-09-26T04:10:43.285Z,96.23
2022-09-26T04:11:42.545Z,96.38
2022-09-26T04:12:42.714Z,96.89
2022-09-26T04:13:52.545Z,96.48
2022-09-26T04:14:44.996Z,96.33
2022-09-26T04:15:43.239Z,96.54
2022-09-26T04:16:43.416Z,96.33
2022-09-26T04:17:43.609Z,96.23
2022-09-26T04:18:44.751Z,96.69
2022-09-26T04:19:43.868Z,96.28
2022-09-26T04:20:44.048Z,96.79
2022-09-26T04:21:44.216Z,96.13
2022-09-26T04:22:45.261Z,96.48
2022-09-26T04:23:44.526Z,96.23
2022-09-26T04:24:44.702Z,96.23
2022-09-26T04:25:44.853Z,96.54
2022-09-26T04:26:45.761Z,96.74
2022-09-26T04:27:45.137Z,96.74
2022-09-26T04:28:45.325Z,96.03
2022-09-26T04:29:45.461Z,96.23
2022-09-26T04:30:46.262Z,96.23
2022-09-26T04:31:45.870Z,96.44
2022-09-26T04:32:45.969Z,96.64
2022-09-26T04:33:46.116Z,96.38
2022-09-26T04:34:46.759Z,96.69
2022-09-26T04:35:46.381Z,96.89
2022-09-26T04:36:47.527Z,97.09
2022-09-26T04:37:46.736Z,97.20
2022-09-26T04:38:47.760Z,97.20
2022-09-26T04:39:47.096Z,97.15
2022-09-26T04:40:47.829Z,96.54
2022-09-26T04:41:47.358Z,97.05
2022-09-26T04:42:47.484Z,96.28
2022-09-26T04:43:47.629Z,96.28
2022-09-26T04:44:47.776Z,96.89
2022-09-26T04:45:48.826Z,96.99
2022-09-26T04:46:48.217Z,97.09
2022-09-26T04:47:48.328Z,96.79
2022-09-26T04:48:49.262Z,96.99
2022-09-26T04:49:48.644Z,96.99
2022-09-26T04:50:48.796Z,97.20
2022-09-26T04:51:49.763Z,96.99
2022-09-26T04:52:49.131Z,96.28
2022-09-26T04:53:49.267Z,96.69
2022-09-26T04:54:49.388Z,96.64
2022-09-26T04:55:49.527Z,96.33
2022-09-26T04:56:49.667Z,96.74
2022-09-26T04:57:50.280Z,96.03
2022-09-26T04:58:50.049Z,96.54
2022-09-26T04:59:50.183Z,96.07
2022-09-26T05:00:51.393Z,95.87
2022-09-26T05:01:50.634Z,95.66
2022-09-26T05:02:50.768Z,95.87
2022-09-26T05:03:50.927Z,95.92
2022-09-26T05:04:51.070Z,95.97
2022-09-26T05:05:51.208Z,95.92
2022-09-26T05:06:51.386Z,95.92
2022-09-26T05:07:51.511Z,95.72
2022-09-26T05:08:51.753Z,95.92
2022-09-26T05:09:51.889Z,95.62
2022-09-26T05:10:52.019Z,95.46
2022-09-26T05:11:52.285Z,95.66
2022-09-26T05:12:52.300Z,95.92
2022-09-26T05:13:54.080Z,95.92
2022-09-26T05:14:53.802Z,95.51
2022-09-26T05:15:52.842Z,95.46
2022-09-26T05:16:53.105Z,95.72
2022-09-26T05:17:54.184Z,95.76
2022-09-26T05:18:53.325Z,95.72
2022-09-26T05:19:53.515Z,95.76
2022-09-26T05:20:53.695Z,95.72
2022-09-26T05:21:53.869Z,96.03
2022-09-26T05:22:54.017Z,95.62
2022-09-26T05:23:54.179Z,95.87
2022-09-26T05:24:54.323Z,95.82
2022-09-26T05:25:54.483Z,95.82
2022-09-26T05:26:54.666Z,95.41
2022-09-26T05:27:54.809Z,95.72
2022-09-26T05:28:55.777Z,95.51
2022-09-26T05:29:55.145Z,95.62
2022-09-26T05:30:55.292Z,95.62
2022-09-26T05:31:55.857Z,96.03
2022-09-26T05:32:56.272Z,95.62
2022-09-26T05:33:56.808Z,95.62
2022-09-26T05:34:55.924Z,95.31
2022-09-26T05:35:56.095Z,95.62
2022-09-26T05:36:56.254Z,95.82
2022-09-26T05:37:56.397Z,96.13
2022-09-26T05:38:56.579Z,95.62
2022-09-26T05:39:56.727Z,95.92
2022-09-26T05:40:57.026Z,95.92
2022-09-26T05:41:57.012Z,95.82
2022-09-26T05:42:57.153Z,95.41
2022-09-26T05:43:57.788Z,94.80
2022-09-26T05:44:58.278Z,95.62
2022-09-26T05:45:57.769Z,95.62
2022-09-26T05:46:58.812Z,95.72
2022-09-26T05:47:58.059Z,95.62
2022-09-26T05:48:58.776Z,95.00
2022-09-26T05:49:58.418Z,95.21
2022-09-26T05:50:58.789Z,95.17
2022-09-26T05:51:58.814Z,94.70
2022-09-26T05:52:59.293Z,94.70
2022-09-26T05:53:59.781Z,94.96
2022-09-26T05:54:59.271Z,94.85
2022-09-26T05:55:59.423Z,94.75
2022-09-26T05:56:59.573Z,94.34
2022-09-26T05:57:59.718Z,94.80
2022-09-26T05:58:59.885Z,94.39
2022-09-26T06:00:00.031Z,94.18
2022-09-26T06:01:00.818Z,94.18
2022-09-26T06:02:01.518Z,93.84
2022-09-26T06:03:00.553Z,93.93
2022-09-26T06:04:00.699Z,93.73
2022-09-26T06:05:00.843Z,93.98
2022-09-26T06:06:01.012Z,93.77
2022-09-26T06:07:01.175Z,93.84
2022-09-26T06:08:01.330Z,94.08
2022-09-26T06:09:01.500Z,93.93
2022-09-26T06:10:01.675Z,93.93
2022-09-26T06:11:01.840Z,93.84
2022-09-26T06:12:02.011Z,94.34
2022-09-26T06:13:02.167Z,93.16
2022-09-26T06:14:02.802Z,93.98
2022-09-26T06:15:02.456Z,93.52
2022-09-26T06:16:02.656Z,93.73
2022-09-26T06:17:02.817Z,93.73
2022-09-26T06:18:02.978Z,93.63
2022-09-26T06:19:03.180Z,93.22
2022-09-26T06:20:04.285Z,92.60
2022-09-26T06:21:04.289Z,92.60
2022-09-26T06:22:04.304Z,92.40
2022-09-26T06:23:03.821Z,92.60
2022-09-26T06:24:03.988Z,92.46
2022-09-26T06:25:04.150Z,92.46
2022-09-26T06:26:04.306Z,91.70
2022-09-26T06:27:04.449Z,91.70
2022-09-26T06:28:04.587Z,90.58
2022-09-26T06:29:04.748Z,90.47
2022-09-26T06:30:04.938Z,90.23
2022-09-26T06:31:05.105Z,90.23
2022-09-26T06:32:05.293Z,89.82
2022-09-26T06:33:05.466Z,89.88
2022-09-26T06:34:05.616Z,89.06
2022-09-26T06:35:06.759Z,88.24
2022-09-26T06:36:06.303Z,88.35
2022-09-26T06:37:06.057Z,88.61
2022-09-26T06:38:06.227Z,87.49
2022-09-26T06:39:06.416Z,87.59
2022-09-26T06:40:08.295Z,86.88
2022-09-26T06:41:06.774Z,86.53
2022-09-26T06:42:06.909Z,85.63
2022-09-26T06:43:07.049Z,85.06
2022-09-26T06:44:07.176Z,84.61
2022-09-26T06:45:07.338Z,85.02
2022-09-26T06:46:07.470Z,84.06
2022-09-26T06:47:07.630Z,82.50
2022-09-26T06:48:07.783Z,81.85
2022-09-26T06:49:08.027Z,81.81
2022-09-26T06:50:08.273Z,81.10
2022-09-26T06:51:09.294Z,81.06
2022-09-26T06:52:08.644Z,80.29
2022-09-26T06:53:13.443Z,80.15
2022-09-26T06:54:08.968Z,79.29
2022-09-26T06:55:09.094Z,79.39
2022-09-26T06:56:09.352Z,79.63
2022-09-26T06:57:14.198Z,79.50
2022-09-26T06:58:11.805Z,78.75
2022-09-26T06:59:10.028Z,78.82
2022-09-26T07:00:10.799Z,79.13
2022-09-26T07:01:10.376Z,79.13
2022-09-26T07:02:10.685Z,78.82
2022-09-26T07:03:10.689Z,78.44
2022-09-26T07:04:10.846Z,77.73
2022-09-26T07:05:10.976Z,77.33
2022-09-26T07:06:11.115Z,77.97
2022-09-26T07:07:11.270Z,78.78
2022-09-26T07:08:11.432Z,78.92
2022-09-26T07:09:12.734Z,79.02
2022-09-26T07:10:13.300Z,79.68
2022-09-26T07:11:34.762Z,80.02
2022-09-26T07:12:15.772Z,81.24
2022-09-26T07:13:13.809Z,81.07
2022-09-26T07:14:12.534Z,80.93
2022-09-26T07:15:13.300Z,81.24
2022-09-26T07:16:12.827Z,80.93
2022-09-26T07:17:12.991Z,80.77
2022-09-26T07:18:13.965Z,80.83
2022-09-26T07:19:14.425Z,79.71
2022-09-26T07:20:13.462Z,79.91
2022-09-26T07:21:14.309Z,81.21
2022-09-26T07:22:13.819Z,81.66
2022-09-26T07:23:13.951Z,82.13
2022-09-26T07:24:14.141Z,81.62
2022-09-26T07:25:14.209Z,83.04
2022-09-26T07:26:14.342Z,82.23
2022-09-26T07:27:14.839Z,81.82
2022-09-26T07:28:14.709Z,82.43
2022-09-26T07:29:16.020Z,82.31
2022-09-26T07:30:15.096Z,83.33
2022-09-26T07:31:15.286Z,82.68
2022-09-26T07:32:15.824Z,81.62
2022-09-26T07:33:15.617Z,81.41
2022-09-26T07:34:18.268Z,81.76
2022-09-26T07:35:17.819Z,82.07
2022-09-26T07:36:16.809Z,82.07
2022-09-26T07:37:16.347Z,82.47
2022-09-26T07:38:16.604Z,82.88
2022-09-26T07:39:16.902Z,82.27
2022-09-26T07:40:16.920Z,82.41
2022-09-26T07:41:17.071Z,83.33
2022-09-26T07:42:17.242Z,83.16
2022-09-26T07:43:24.148Z,83.87
2022-09-26T07:45:02.287Z,84.39
2022-09-26T07:45:29.468Z,82.86
2022-09-26T07:46:19.992Z,82.86
2022-09-26T07:47:18.108Z,83.67
2022-09-26T07:48:18.213Z,83.87
2022-09-26T07:49:19.403Z,83.87
2022-09-26T07:50:18.498Z,84.49
2022-09-26T07:51:19.313Z,84.55
2022-09-26T07:52:19.310Z,83.33
2022-09-26T07:53:18.952Z,83.12
2022-09-26T07:54:19.102Z,82.82
2022-09-26T07:55:19.809Z,82.00
2022-09-26T07:56:20.312Z,82.31
2022-09-26T07:57:20.317Z,82.82
2022-09-26T07:58:19.797Z,81.80
2022-09-26T07:59:19.935Z,81.80
2022-09-26T08:00:20.088Z,82.00
2022-09-26T08:01:20.278Z,82.27
2022-09-26T08:02:20.636Z,82.88
2022-09-26T08:03:20.714Z,81.76
2022-09-26T08:04:20.755Z,81.76
2022-09-26T08:05:20.899Z,81.66
2022-09-26T08:06:21.074Z,80.54
2022-09-26T08:07:21.182Z,81.15
2022-09-26T08:08:21.814Z,80.94
2022-09-26T08:09:21.427Z,81.04
2022-09-26T08:10:21.779Z,80.64
2022-09-26T08:11:22.874Z,80.94
2022-09-26T08:12:22.090Z,80.84
2022-09-26T08:13:22.274Z,80.94
2022-09-26T08:14:22.436Z,81.04
2022-09-26T08:15:22.608Z,81.04
2022-09-26T08:16:23.539Z,82.03
2022-09-26T08:17:23.825Z,80.94
2022-09-26T08:18:23.201Z,81.45
2022-09-26T08:19:23.383Z,80.43
2022-09-26T08:20:28.515Z,80.57
2022-09-26T08:21:24.662Z,80.84
2022-09-26T08:22:23.799Z,81.39
2022-09-26T08:23:23.980Z,81.25
2022-09-26T08:24:24.824Z,81.76
2022-09-26T08:25:24.825Z,80.84
2022-09-26T08:26:24.561Z,81.66
2022-09-26T08:27:25.325Z,81.76
2022-09-26T08:28:25.355Z,80.74
2022-09-26T08:29:25.094Z,80.54
2022-09-26T08:30:25.349Z,81.04
2022-09-26T08:31:26.581Z,81.04
2022-09-26T08:32:26.634Z,81.56
2022-09-26T08:33:25.857Z,81.76
2022-09-26T08:34:26.039Z,81.86
2022-09-26T08:35:26.233Z,81.15
2022-09-26T08:36:26.379Z,80.94
2022-09-26T08:37:26.509Z,81.76
2022-09-26T08:38:27.329Z,81.86
2022-09-26T08:39:31.240Z,81.86
2022-09-26T08:40:29.088Z,82.07
2022-09-26T08:41:27.133Z,81.49
2022-09-26T08:42:27.255Z,81.70
2022-09-26T08:43:27.380Z,82.10
2022-09-26T08:44:28.329Z,82.31
2022-09-26T08:45:27.847Z,82.31
2022-09-26T08:46:27.933Z,82.92
2022-09-26T08:47:28.830Z,82.51
2022-09-26T08:48:28.186Z,82.31
2022-09-26T08:49:28.336Z,82.14
2022-09-26T08:50:28.520Z,83.37
2022-09-26T08:51:29.475Z,83.37
2022-09-26T08:52:29.869Z,83.26
2022-09-26T08:53:28.999Z,83.78
2022-09-26T08:54:29.836Z,84.18
2022-09-26T08:55:29.842Z,83.06
2022-09-26T08:56:29.499Z,83.26
2022-09-26T08:57:30.329Z,83.37
2022-09-26T08:58:29.839Z,84.39
2022-09-26T08:59:30.026Z,84.28
2022-09-26T09:00:30.182Z,85.21
2022-09-26T09:01:30.453Z,84.90
2022-09-26T09:02:30.615Z,84.83
2022-09-26T09:03:30.737Z,84.94
2022-09-26T09:04:30.907Z,85.24
2022-09-26T09:05:31.076Z,85.45
2022-09-26T09:06:31.242Z,86.06
2022-09-26T09:07:31.430Z,86.57
2022-09-26T09:08:31.547Z,86.98
2022-09-26T09:09:31.711Z,86.26
2022-09-26T09:10:31.878Z,86.06
2022-09-26T09:11:32.033Z,86.36
2022-09-26T09:12:32.558Z,85.86
2022-09-26T09:13:33.848Z,85.86
2022-09-26T09:14:33.347Z,86.47
2022-09-26T09:15:32.725Z,86.41
2022-09-26T09:16:32.982Z,87.84
2022-09-26T09:17:33.106Z,87.84
2022-09-26T09:18:34.304Z,88.96
2022-09-26T09:19:34.332Z,88.65
2022-09-26T09:20:34.334Z,88.96
2022-09-26T09:21:38.028Z,89.06
2022-09-26T09:22:34.899Z,89.02
2022-09-26T09:23:34.835Z,89.06
2022-09-26T09:24:34.230Z,87.84
2022-09-26T09:25:34.423Z,88.55
2022-09-26T09:27:52.722Z,88.76
2022-09-26T09:28:37.041Z,89.06
2022-09-26T09:29:35.269Z,88.65
2022-09-26T09:30:35.444Z,88.14
2022-09-26T09:31:35.642Z,88.45
2022-09-26T09:32:35.823Z,89.51
2022-09-26T09:33:35.975Z,88.79
2022-09-26T09:34:36.125Z,88.79
2022-09-26T09:35:36.277Z,90.02
2022-09-26T09:36:36.426Z,89.51
2022-09-26T09:37:36.546Z,89.37
2022-09-26T09:38:37.347Z,88.70
2022-09-26T09:39:37.851Z,89.61
2022-09-26T09:40:37.162Z,90.59
2022-09-26T09:41:37.358Z,90.39
2022-09-26T09:42:37.348Z,90.29
2022-09-26T09:43:37.602Z,89.88
2022-09-26T09:44:37.731Z,90.59
2022-09-26T09:45:37.856Z,89.98
2022-09-26T09:46:38.053Z,90.90
2022-09-26T09:47:38.367Z,91.20
2022-09-26T09:48:38.388Z,90.19
2022-09-26T09:49:39.352Z,90.19
2022-09-26T09:50:38.727Z,90.70
2022-09-26T09:51:39.738Z,90.08
2022-09-26T09:52:39.072Z,89.72
2022-09-26T09:53:39.851Z,91.11
2022-09-26T09:54:39.338Z,90.19
2022-09-26T09:55:39.498Z,90.70
2022-09-26T09:56:40.348Z,90.80
2022-09-26T09:57:39.874Z,90.29
2022-09-26T09:58:40.868Z,91.61
2022-09-26T09:59:40.222Z,91.00
2022-09-26T10:00:40.372Z,90.45
2022-09-26T10:01:40.507Z,91.11
2022-09-26T10:02:40.916Z,89.88
2022-09-26T10:03:40.834Z,88.65
2022-09-26T10:04:40.952Z,89.47
2022-09-26T10:05:41.082Z,88.85
2022-09-26T10:06:46.068Z,89.67
2022-09-26T10:07:42.476Z,89.51
2022-09-26T10:08:41.575Z,89.88
2022-09-26T10:09:41.718Z,89.78
2022-09-26T10:10:41.859Z,90.08
2022-09-26T10:11:42.849Z,89.67
2022-09-26T10:12:42.363Z,90.19
2022-09-26T10:13:42.371Z,89.37
2022-09-26T10:14:42.537Z,90.66
2022-09-26T10:15:42.709Z,90.14
2022-09-26T10:16:42.875Z,88.82
2022-09-26T10:17:51.981Z,88.17
2022-09-26T10:18:44.145Z,88.10
2022-09-26T10:19:44.357Z,88.10
2022-09-26T10:20:43.613Z,87.85
2022-09-26T10:21:43.733Z,89.39
2022-09-26T10:22:43.865Z,88.37
2022-09-26T10:23:44.852Z,88.53
2022-09-26T10:24:44.224Z,87.51
2022-09-26T10:25:44.396Z,87.82
2022-09-26T10:26:44.537Z,87.71
2022-09-26T10:27:45.374Z,86.29
2022-09-26T10:28:44.990Z,87.41
2022-09-26T10:29:45.055Z,87.65
2022-09-26T10:30:45.258Z,86.83
2022-09-26T10:31:45.339Z,87.49
2022-09-26T10:32:45.517Z,87.76
2022-09-26T10:33:45.671Z,88.57
2022-09-26T10:34:45.825Z,88.17
2022-09-26T10:35:46.029Z,87.85
2022-09-26T10:36:46.195Z,86.83
2022-09-26T10:37:47.367Z,88.06
2022-09-26T10:38:46.487Z,88.17
2022-09-26T10:39:46.685Z,87.96
2022-09-26T10:40:46.937Z,87.85
2022-09-26T10:41:47.171Z,88.98
2022-09-26T10:42:47.253Z,88.32
2022-09-26T10:43:48.358Z,89.04
2022-09-26T10:44:48.356Z,87.92
2022-09-26T10:45:47.888Z,88.02
2022-09-26T10:46:48.018Z,88.88
2022-09-26T10:47:48.067Z,88.73
2022-09-26T10:48:48.543Z,87.92
2022-09-26T10:49:49.362Z,87.65
2022-09-26T10:50:48.647Z,88.06
2022-09-26T10:51:48.794Z,88.31
2022-09-26T10:52:48.951Z,89.49
2022-09-26T10:53:49.116Z,88.98
2022-09-26T10:54:49.302Z,88.47
2022-09-26T10:55:49.468Z,87.96
2022-09-26T10:56:49.658Z,88.37
2022-09-26T10:57:49.859Z,88.88
2022-09-26T10:58:50.069Z,88.88
2022-09-26T10:59:50.254Z,88.57
2022-09-26T11:00:51.363Z,88.57
2022-09-26T11:01:50.662Z,88.17
2022-09-26T11:02:50.779Z,89.08
2022-09-26T11:03:51.021Z,87.96
2022-09-26T11:04:51.107Z,87.65
2022-09-26T11:05:51.277Z,88.61
2022-09-26T11:06:52.371Z,88.47
2022-09-26T11:07:51.611Z,89.12
2022-09-26T11:08:51.875Z,89.79
2022-09-26T11:09:51.885Z,88.00
2022-09-26T11:10:52.876Z,87.79
2022-09-26T11:11:52.244Z,89.79
2022-09-26T11:12:52.400Z,89.49
2022-09-26T11:13:52.542Z,89.79
2022-09-26T11:14:52.664Z,89.39
2022-09-26T11:15:52.895Z,88.88
2022-09-26T11:16:53.886Z,89.49
2022-09-26T11:17:53.117Z,88.92
2022-09-26T11:18:53.378Z,88.37
2022-09-26T11:19:55.012Z,88.51
2022-09-26T11:20:54.701Z,88.37
2022-09-26T11:21:54.870Z,88.47
2022-09-26T11:22:54.110Z,87.90
2022-09-26T11:23:54.281Z,88.10
2022-09-26T11:24:54.435Z,88.92
2022-09-26T11:25:57.933Z,88.82
2022-09-26T11:26:55.752Z,88.57
2022-09-26T11:27:54.984Z,89.39
2022-09-26T11:28:55.401Z,88.57
2022-09-26T11:29:55.258Z,87.76
2022-09-26T11:30:56.407Z,87.96
2022-09-26T11:32:00.139Z,87.45
2022-09-26T11:32:56.712Z,87.96
2022-09-26T11:33:55.965Z,88.98
2022-09-26T11:34:56.113Z,87.45
2022-09-26T11:35:56.263Z,87.24
2022-09-26T11:36:56.402Z,87.85
2022-09-26T11:37:56.576Z,87.76
2022-09-26T11:38:56.738Z,87.65
2022-09-26T11:39:57.873Z,87.65
2022-09-26T11:40:57.243Z,87.35
2022-09-26T11:41:57.296Z,88.47
2022-09-26T11:42:57.452Z,87.45
2022-09-26T11:43:57.603Z,87.35
2022-09-26T11:44:58.749Z,87.85
2022-09-26T11:45:58.431Z,87.35
2022-09-26T11:46:58.079Z,87.55
2022-09-26T11:47:58.222Z,87.24
2022-09-26T11:48:58.397Z,88.51
2022-09-26T11:49:58.542Z,88.57
2022-09-26T11:50:58.718Z,87.45
2022-09-26T11:51:58.899Z,87.59
2022-09-26T11:52:59.050Z,88.67
2022-09-26T11:53:59.198Z,88.26
2022-09-26T11:54:59.376Z,87.96
2022-09-26T11:55:59.504Z,88.26
2022-09-26T11:56:59.653Z,87.96
2022-09-26T11:58:03.232Z,87.35
2022-09-26T11:59:00.878Z,87.85
2022-09-26T12:00:00.156Z,87.85
2022-09-26T12:01:00.895Z,88.88
2022-09-26T12:02:00.558Z,88.88
2022-09-26T12:03:00.884Z,88.67
2022-09-26T12:04:01.070Z,88.17
2022-09-26T12:05:01.903Z,87.45
2022-09-26T12:06:01.287Z,87.96
2022-09-26T12:07:02.381Z,87.18
2022-09-26T12:08:02.386Z,88.20
2022-09-26T12:09:01.771Z,88.92
2022-09-26T12:10:01.948Z,88.20
2022-09-26T12:11:02.118Z,88.82
2022-09-26T12:12:02.279Z,88.61
2022-09-26T12:13:03.384Z,88.20
2022-09-26T12:14:02.625Z,88.92
2022-09-26T12:15:02.769Z,88.20
2022-09-26T12:16:03.007Z,87.79
2022-09-26T12:17:03.098Z,88.51
2022-09-26T12:18:03.271Z,87.90
2022-09-26T12:19:04.387Z,88.17
2022-09-26T12:20:03.638Z,87.90
2022-09-26T12:21:04.385Z,87.29
2022-09-26T12:22:04.053Z,87.79
2022-09-26T12:23:04.887Z,87.79
2022-09-26T12:24:04.403Z,87.76
2022-09-26T12:25:05.385Z,87.55
2022-09-26T12:26:04.798Z,86.83
2022-09-26T12:27:04.955Z,86.63
2022-09-26T12:28:05.117Z,87.30
2022-09-26T12:29:05.276Z,87.41
2022-09-26T12:30:06.396Z,87.61
2022-09-26T12:31:05.984Z,86.90
2022-09-26T12:32:05.800Z,86.35
2022-09-26T12:33:06.886Z,85.74
2022-09-26T12:34:06.185Z,85.84
2022-09-26T12:35:06.363Z,85.22
2022-09-26T12:36:06.552Z,85.28
2022-09-26T12:37:06.716Z,84.98
2022-09-26T12:38:06.846Z,83.96
2022-09-26T12:39:07.073Z,83.35
2022-09-26T12:40:07.132Z,85.02
2022-09-26T12:41:07.889Z,84.92
2022-09-26T12:42:07.541Z,84.51
2022-09-26T12:43:08.389Z,84.92
2022-09-26T12:44:07.934Z,84.92
2022-09-26T12:45:08.076Z,84.20
2022-09-26T12:46:08.338Z,84.41
2022-09-26T12:47:08.452Z,84.31
2022-09-26T12:48:08.633Z,84.61
2022-09-26T12:49:08.802Z,84.41
2022-09-26T12:50:09.927Z,85.02
2022-09-26T12:51:09.248Z,85.02
2022-09-26T12:52:09.417Z,84.20
2022-09-26T12:53:09.609Z,84.82
2022-09-26T12:54:09.846Z,83.59
2022-09-26T12:55:10.020Z,84.98